Terminal Aerodrome Forecast
Issued by NWS

Home | Current Version | Previous Version | Text Only | Print | Product List | Glossary On
Versions: 1 2 3 4 5 6 7 8 9 10 11 12 13 14
000
FTUS46 KMFR 051743
TAFRBG
TAF
KRBG 051743Z 0518/0618 35007KT P6SM BKN021 OVC030
     FM052100 36010G18KT P6SM SCT015 BKN040
     FM060200 VRB03KT P6SM SCT020 BKN035
     FM060600 00000KT P6SM BKN020 OVC040=

USA.gov is the U.S. government's official web portal to all federal, state and local government web resources and services.